sensor_id;sensor_type;location;lat;lon;timestamp;P1;durP1;ratioP1;P2;durP2;ratioP2
77888;SDS011;67082;41.704;44.768;2023-05-20T00:01:38;37.00;;;21.88;;
77888;SDS011;67082;41.704;44.768;2023-05-20T00:04:07;37.88;;;22.38;;
77888;SDS011;67082;41.704;44.768;2023-05-20T00:06:35;39.30;;;23.45;;
77888;SDS011;67082;41.704;44.768;2023-05-20T00:09:03;37.25;;;21.60;;
77888;SDS011;67082;41.704;44.768;2023-05-20T00:11:33;32.22;;;20.33;;
77888;SDS011;67082;41.704;44.768;2023-05-20T00:14:01;35.22;;;19.80;;
77888;SDS011;67082;41.704;44.768;2023-05-20T00:16:29;33.17;;;19.15;;
77888;SDS011;67082;41.704;44.768;2023-05-20T00:18:59;34.45;;;18.70;;
77888;SDS011;67082;41.704;44.768;2023-05-20T00:21:27;34.72;;;19.23;;
77888;SDS011;67082;41.704;44.768;2023-05-20T00:23:56;33.72;;;19.92;;
77888;SDS011;67082;41.704;44.768;2023-05-20T00:26:25;31.63;;;20.23;;
77888;SDS011;67082;41.704;44.768;2023-05-20T00:28:54;30.92;;;19.60;;
77888;SDS011;67082;41.704;44.768;2023-05-20T00:31:22;38.60;;;20.05;;
77888;SDS011;67082;41.704;44.768;2023-05-20T00:33:51;32.72;;;19.08;;
77888;SDS011;67082;41.704;44.768;2023-05-20T00:36:20;27.35;;;17.05;;
77888;SDS011;67082;41.704;44.768;2023-05-20T00:38:48;28.30;;;17.55;;
77888;SDS011;67082;41.704;44.768;2023-05-20T00:41:16;28.60;;;16.85;;
77888;SDS011;67082;41.704;44.768;2023-05-20T00:43:44;31.65;;;16.95;;
77888;SDS011;67082;41.704;44.768;2023-05-20T00:46:12;26.30;;;15.93;;
77888;SDS011;67082;41.704;44.768;2023-05-20T00:48:41;29.98;;;16.05;;
77888;SDS011;67082;41.704;44.768;2023-05-20T00:51:10;26.23;;;15.40;;
77888;SDS011;67082;41.704;44.768;2023-05-20T00:53:40;21.60;;;14.23;;
77888;SDS011;67082;41.704;44.768;2023-05-20T00:56:09;26.45;;;14.35;;
77888;SDS011;67082;41.704;44.768;2023-05-20T00:58:38;26.33;;;14.30;;
77888;SDS011;67082;41.704;44.768;2023-05-20T01:01:07;22.88;;;14.60;;
77888;SDS011;67082;41.704;44.768;2023-05-20T01:03:35;26.00;;;15.15;;
77888;SDS011;67082;41.704;44.768;2023-05-20T01:06:04;25.10;;;14.35;;
77888;SDS011;67082;41.704;44.768;2023-05-20T01:08:32;28.05;;;15.50;;
77888;SDS011;67082;41.704;44.768;2023-05-20T01:11:04;26.30;;;13.00;;
77888;SDS011;67082;41.704;44.768;2023-05-20T01:13:42;24.13;;;13.63;;
77888;SDS011;67082;41.704;44.768;2023-05-20T01:16:19;23.08;;;12.25;;
77888;SDS011;67082;41.704;44.768;2023-05-20T01:18:54;25.88;;;13.02;;
77888;SDS011;67082;41.704;44.768;2023-05-20T01:21:24;23.17;;;11.82;;
77888;SDS011;67082;41.704;44.768;2023-05-20T01:23:54;24.33;;;13.57;;
77888;SDS011;67082;41.704;44.768;2023-05-20T01:26:24;24.73;;;14.45;;
77888;SDS011;67082;41.704;44.768;2023-05-20T01:28:53;27.65;;;16.58;;
77888;SDS011;67082;41.704;44.768;2023-05-20T01:31:25;29.42;;;17.33;;
77888;SDS011;67082;41.704;44.768;2023-05-20T01:33:58;24.60;;;16.73;;
77888;SDS011;67082;41.704;44.768;2023-05-20T01:36:28;31.38;;;18.08;;
77888;SDS011;67082;41.704;44.768;2023-05-20T01:38:58;26.77;;;17.55;;
77888;SDS011;67082;41.704;44.768;2023-05-20T01:41:29;27.17;;;17.70;;
77888;SDS011;67082;41.704;44.768;2023-05-20T01:43:59;30.30;;;18.63;;
77888;SDS011;67082;41.704;44.768;2023-05-20T01:46:31;32.58;;;19.15;;
77888;SDS011;67082;41.704;44.768;2023-05-20T01:49:01;31.38;;;17.63;;
77888;SDS011;67082;41.704;44.768;2023-05-20T01:51:30;31.25;;;18.05;;
77888;SDS011;67082;41.704;44.768;2023-05-20T01:53:59;36.13;;;17.05;;
77888;SDS011;67082;41.704;44.768;2023-05-20T01:56:28;29.73;;;14.18;;
77888;SDS011;67082;41.704;44.768;2023-05-20T01:58:58;22.90;;;14.30;;
77888;SDS011;67082;41.704;44.768;2023-05-20T02:01:26;26.08;;;14.43;;
77888;SDS011;67082;41.704;44.768;2023-05-20T02:03:54;24.80;;;14.95;;
77888;SDS011;67082;41.704;44.768;2023-05-20T02:06:23;29.65;;;15.43;;
77888;SDS011;67082;41.704;44.768;2023-05-20T02:08:53;29.65;;;14.90;;
77888;SDS011;67082;41.704;44.768;2023-05-20T02:11:23;27.02;;;14.27;;
77888;SDS011;67082;41.704;44.768;2023-05-20T02:13:54;25.77;;;14.68;;
77888;SDS011;67082;41.704;44.768;2023-05-20T02:16:23;26.85;;;14.70;;
77888;SDS011;67082;41.704;44.768;2023-05-20T02:18:51;24.30;;;15.02;;
77888;SDS011;67082;41.704;44.768;2023-05-20T02:21:20;23.63;;;14.00;;
77888;SDS011;67082;41.704;44.768;2023-05-20T02:23:48;23.85;;;13.50;;
77888;SDS011;67082;41.704;44.768;2023-05-20T02:26:17;27.85;;;14.13;;
77888;SDS011;67082;41.704;44.768;2023-05-20T02:28:47;24.58;;;14.35;;
77888;SDS011;67082;41.704;44.768;2023-05-20T02:31:17;27.33;;;14.82;;
77888;SDS011;67082;41.704;44.768;2023-05-20T02:33:45;27.13;;;15.48;;
77888;SDS011;67082;41.704;44.768;2023-05-20T02:36:14;22.90;;;14.88;;
77888;SDS011;67082;41.704;44.768;2023-05-20T02:38:44;28.73;;;16.05;;
77888;SDS011;67082;41.704;44.768;2023-05-20T02:41:12;24.60;;;15.77;;
77888;SDS011;67082;41.704;44.768;2023-05-20T02:43:41;27.60;;;15.23;;
77888;SDS011;67082;41.704;44.768;2023-05-20T02:46:11;27.67;;;15.13;;
77888;SDS011;67082;41.704;44.768;2023-05-20T02:48:39;25.73;;;16.20;;
77888;SDS011;67082;41.704;44.768;2023-05-20T02:51:08;23.85;;;15.35;;
77888;SDS011;67082;41.704;44.768;2023-05-20T02:53:36;25.00;;;15.90;;
77888;SDS011;67082;41.704;44.768;2023-05-20T02:56:04;31.48;;;15.55;;
77888;SDS011;67082;41.704;44.768;2023-05-20T02:58:33;20.13;;;13.68;;
77888;SDS011;67082;41.704;44.768;2023-05-20T03:01:02;22.88;;;12.93;;
77888;SDS011;67082;41.704;44.768;2023-05-20T03:03:30;21.90;;;12.00;;
77888;SDS011;67082;41.704;44.768;2023-05-20T03:06:00;19.35;;;10.45;;
77888;SDS011;67082;41.704;44.768;2023-05-20T03:08:28;20.05;;;11.00;;
77888;SDS011;67082;41.704;44.768;2023-05-20T03:10:56;18.33;;;10.57;;
77888;SDS011;67082;41.704;44.768;2023-05-20T03:13:24;17.88;;;11.10;;
77888;SDS011;67082;41.704;44.768;2023-05-20T03:15:53;18.85;;;10.73;;
77888;SDS011;67082;41.704;44.768;2023-05-20T03:18:23;16.40;;;10.02;;
77888;SDS011;67082;41.704;44.768;2023-05-20T03:20:52;19.38;;;11.30;;
77888;SDS011;67082;41.704;44.768;2023-05-20T03:23:20;21.95;;;10.80;;
77888;SDS011;67082;41.704;44.768;2023-05-20T03:25:49;21.23;;;10.40;;
77888;SDS011;67082;41.704;44.768;2023-05-20T03:28:17;20.17;;;10.43;;
77888;SDS011;67082;41.704;44.768;2023-05-20T03:30:45;21.45;;;10.73;;
77888;SDS011;67082;41.704;44.768;2023-05-20T03:33:15;18.98;;;11.27;;
77888;SDS011;67082;41.704;44.768;2023-05-20T03:35:43;21.42;;;10.98;;
77888;SDS011;67082;41.704;44.768;2023-05-20T03:38:13;20.15;;;12.00;;
77888;SDS011;67082;41.704;44.768;2023-05-20T03:40:42;19.38;;;11.23;;
77888;SDS011;67082;41.704;44.768;2023-05-20T03:43:10;20.83;;;11.30;;
77888;SDS011;67082;41.704;44.768;2023-05-20T03:45:38;20.83;;;12.38;;
77888;SDS011;67082;41.704;44.768;2023-05-20T03:48:07;17.88;;;12.35;;
77888;SDS011;67082;41.704;44.768;2023-05-20T03:50:35;20.83;;;12.77;;
77888;SDS011;67082;41.704;44.768;2023-05-20T03:53:03;21.45;;;12.95;;
77888;SDS011;67082;41.704;44.768;2023-05-20T03:55:38;19.38;;;12.18;;
77888;SDS011;67082;41.704;44.768;2023-05-20T03:58:09;31.85;;;13.30;;
77888;SDS011;67082;41.704;44.768;2023-05-20T04:00:39;21.23;;;13.32;;
77888;SDS011;67082;41.704;44.768;2023-05-20T04:03:07;23.73;;;14.05;;
77888;SDS011;67082;41.704;44.768;2023-05-20T04:05:35;22.70;;;13.60;;
77888;SDS011;67082;41.704;44.768;2023-05-20T04:08:11;23.65;;;13.25;;
77888;SDS011;67082;41.704;44.768;2023-05-20T04:10:40;20.92;;;13.60;;
77888;SDS011;67082;41.704;44.768;2023-05-20T04:13:11;23.17;;;13.05;;
77888;SDS011;67082;41.704;44.768;2023-05-20T04:15:40;21.48;;;13.18;;
77888;SDS011;67082;41.704;44.768;2023-05-20T04:18:10;24.45;;;12.77;;
77888;SDS011;67082;41.704;44.768;2023-05-20T04:20:40;22.17;;;12.43;;
77888;SDS011;67082;41.704;44.768;2023-05-20T04:23:09;23.67;;;11.75;;
77888;SDS011;67082;41.704;44.768;2023-05-20T04:25:37;23.73;;;11.25;;
77888;SDS011;67082;41.704;44.768;2023-05-20T04:28:07;22.38;;;10.02;;
77888;SDS011;67082;41.704;44.768;2023-05-20T04:30:37;20.27;;;9.40;;
77888;SDS011;67082;41.704;44.768;2023-05-20T04:33:06;15.98;;;9.43;;
77888;SDS011;67082;41.704;44.768;2023-05-20T04:35:35;21.25;;;10.13;;
77888;SDS011;67082;41.704;44.768;2023-05-20T04:38:05;19.25;;;9.60;;
77888;SDS011;67082;41.704;44.768;2023-05-20T04:40:35;18.83;;;9.68;;
77888;SDS011;67082;41.704;44.768;2023-05-20T04:43:03;20.20;;;9.77;;
77888;SDS011;67082;41.704;44.768;2023-05-20T04:45:31;15.63;;;9.85;;
77888;SDS011;67082;41.704;44.768;2023-05-20T04:48:00;16.65;;;9.88;;
77888;SDS011;67082;41.704;44.768;2023-05-20T04:50:29;17.45;;;9.95;;
77888;SDS011;67082;41.704;44.768;2023-05-20T04:52:56;18.75;;;10.13;;
77888;SDS011;67082;41.704;44.768;2023-05-20T04:55:27;22.52;;;10.27;;
77888;SDS011;67082;41.704;44.768;2023-05-20T04:57:56;22.10;;;11.52;;
77888;SDS011;67082;41.704;44.768;2023-05-20T05:00:24;22.52;;;11.23;;
77888;SDS011;67082;41.704;44.768;2023-05-20T05:02:53;25.38;;;11.10;;
77888;SDS011;67082;41.704;44.768;2023-05-20T05:05:21;20.20;;;11.18;;
77888;SDS011;67082;41.704;44.768;2023-05-20T05:07:49;24.05;;;12.07;;
77888;SDS011;67082;41.704;44.768;2023-05-20T05:10:18;23.63;;;11.73;;
77888;SDS011;67082;41.704;44.768;2023-05-20T05:12:46;22.00;;;11.55;;
77888;SDS011;67082;41.704;44.768;2023-05-20T05:15:15;23.27;;;12.25;;
77888;SDS011;67082;41.704;44.768;2023-05-20T05:17:44;23.20;;;11.98;;
77888;SDS011;67082;41.704;44.768;2023-05-20T05:20:13;28.25;;;13.05;;
77888;SDS011;67082;41.704;44.768;2023-05-20T05:22:41;28.15;;;12.40;;
77888;SDS011;67082;41.704;44.768;2023-05-20T05:25:09;24.30;;;12.98;;
77888;SDS011;67082;41.704;44.768;2023-05-20T05:27:38;28.50;;;13.52;;
77888;SDS011;67082;41.704;44.768;2023-05-20T05:30:08;30.38;;;14.77;;
77888;SDS011;67082;41.704;44.768;2023-05-20T05:32:37;28.50;;;14.95;;
77888;SDS011;67082;41.704;44.768;2023-05-20T05:35:05;32.80;;;16.23;;
77888;SDS011;67082;41.704;44.768;2023-05-20T05:37:34;27.70;;;15.90;;
77888;SDS011;67082;41.704;44.768;2023-05-20T05:40:05;30.83;;;16.35;;
77888;SDS011;67082;41.704;44.768;2023-05-20T05:42:34;30.52;;;16.88;;
77888;SDS011;67082;41.704;44.768;2023-05-20T05:45:04;34.17;;;17.35;;
77888;SDS011;67082;41.704;44.768;2023-05-20T05:47:32;29.85;;;15.60;;
77888;SDS011;67082;41.704;44.768;2023-05-20T05:50:01;32.20;;;16.90;;
77888;SDS011;67082;41.704;44.768;2023-05-20T05:52:32;28.58;;;17.65;;
77888;SDS011;67082;41.704;44.768;2023-05-20T05:55:01;33.78;;;16.45;;
77888;SDS011;67082;41.704;44.768;2023-05-20T05:57:31;32.95;;;17.02;;
77888;SDS011;67082;41.704;44.768;2023-05-20T06:00:00;32.30;;;17.27;;
77888;SDS011;67082;41.704;44.768;2023-05-20T06:02:35;33.13;;;17.80;;
77888;SDS011;67082;41.704;44.768;2023-05-20T06:05:04;38.35;;;17.75;;
77888;SDS011;67082;41.704;44.768;2023-05-20T06:07:32;33.28;;;16.50;;
77888;SDS011;67082;41.704;44.768;2023-05-20T06:10:00;25.70;;;16.20;;
77888;SDS011;67082;41.704;44.768;2023-05-20T06:12:29;34.45;;;17.15;;
77888;SDS011;67082;41.704;44.768;2023-05-20T06:14:57;36.50;;;19.00;;
77888;SDS011;67082;41.704;44.768;2023-05-20T06:17:26;36.13;;;18.08;;
77888;SDS011;67082;41.704;44.768;2023-05-20T06:19:55;33.97;;;18.98;;
77888;SDS011;67082;41.704;44.768;2023-05-20T06:22:23;34.40;;;17.65;;
77888;SDS011;67082;41.704;44.768;2023-05-20T06:24:52;29.95;;;16.95;;
77888;SDS011;67082;41.704;44.768;2023-05-20T06:27:23;33.30;;;16.63;;
77888;SDS011;67082;41.704;44.768;2023-05-20T06:29:51;28.67;;;15.38;;
77888;SDS011;67082;41.704;44.768;2023-05-20T06:32:19;32.80;;;16.20;;
77888;SDS011;67082;41.704;44.768;2023-05-20T06:34:48;29.65;;;16.05;;
77888;SDS011;67082;41.704;44.768;2023-05-20T06:37:16;28.50;;;15.30;;
77888;SDS011;67082;41.704;44.768;2023-05-20T06:39:45;22.02;;;11.90;;
77888;SDS011;67082;41.704;44.768;2023-05-20T06:42:14;24.42;;;13.50;;
77888;SDS011;67082;41.704;44.768;2023-05-20T06:44:47;28.67;;;13.70;;
77888;SDS011;67082;41.704;44.768;2023-05-20T06:47:33;21.90;;;13.65;;
77888;SDS011;67082;41.704;44.768;2023-05-20T06:50:03;24.48;;;14.52;;
77888;SDS011;67082;41.704;44.768;2023-05-20T06:52:32;26.85;;;14.68;;
77888;SDS011;67082;41.704;44.768;2023-05-20T06:55:03;24.38;;;14.75;;
77888;SDS011;67082;41.704;44.768;2023-05-20T06:57:34;31.83;;;16.05;;
77888;SDS011;67082;41.704;44.768;2023-05-20T07:00:03;32.90;;;16.45;;
77888;SDS011;67082;41.704;44.768;2023-05-20T07:02:37;29.92;;;15.38;;
77888;SDS011;67082;41.704;44.768;2023-05-20T07:05:06;34.47;;;16.25;;
77888;SDS011;67082;41.704;44.768;2023-05-20T07:07:34;27.50;;;16.60;;
77888;SDS011;67082;41.704;44.768;2023-05-20T07:10:04;28.40;;;16.08;;
77888;SDS011;67082;41.704;44.768;2023-05-20T07:12:32;28.02;;;15.68;;
77888;SDS011;67082;41.704;44.768;2023-05-20T07:15:04;27.00;;;15.88;;
77888;SDS011;67082;41.704;44.768;2023-05-20T07:17:33;24.85;;;16.08;;
77888;SDS011;67082;41.704;44.768;2023-05-20T07:20:03;30.35;;;15.25;;
77888;SDS011;67082;41.704;44.768;2023-05-20T07:22:31;28.88;;;15.38;;
77888;SDS011;67082;41.704;44.768;2023-05-20T07:25:22;29.65;;;15.88;;
77888;SDS011;67082;41.704;44.768;2023-05-20T07:27:50;25.35;;;14.85;;
77888;SDS011;67082;41.704;44.768;2023-05-20T07:30:19;28.42;;;15.30;;
77888;SDS011;67082;41.704;44.768;2023-05-20T07:32:59;25.55;;;14.75;;
77888;SDS011;67082;41.704;44.768;2023-05-20T07:35:28;29.13;;;15.15;;
77888;SDS011;67082;41.704;44.768;2023-05-20T07:37:55;33.30;;;14.85;;
77888;SDS011;67082;41.704;44.768;2023-05-20T07:40:25;26.02;;;14.93;;
77888;SDS011;67082;41.704;44.768;2023-05-20T07:42:53;24.65;;;14.45;;
77888;SDS011;67082;41.704;44.768;2023-05-20T07:45:22;22.73;;;13.45;;
77888;SDS011;67082;41.704;44.768;2023-05-20T07:47:50;26.52;;;13.88;;
77888;SDS011;67082;41.704;44.768;2023-05-20T07:50:18;26.80;;;12.82;;
77888;SDS011;67082;41.704;44.768;2023-05-20T07:52:46;24.05;;;13.25;;
77888;SDS011;67082;41.704;44.768;2023-05-20T07:55:22;22.77;;;13.50;;
77888;SDS011;67082;41.704;44.768;2023-05-20T07:57:50;23.88;;;13.68;;
77888;SDS011;67082;41.704;44.768;2023-05-20T08:00:19;25.17;;;14.10;;
77888;SDS011;67082;41.704;44.768;2023-05-20T08:02:47;25.15;;;14.00;;
77888;SDS011;67082;41.704;44.768;2023-05-20T08:05:22;25.80;;;14.30;;
77888;SDS011;67082;41.704;44.768;2023-05-20T08:07:51;30.45;;;14.27;;
77888;SDS011;67082;41.704;44.768;2023-05-20T08:10:22;26.52;;;13.52;;
77888;SDS011;67082;41.704;44.768;2023-05-20T08:12:52;28.10;;;15.30;;
77888;SDS011;67082;41.704;44.768;2023-05-20T08:15:20;24.67;;;13.70;;
77888;SDS011;67082;41.704;44.768;2023-05-20T08:17:49;29.48;;;14.63;;
77888;SDS011;67082;41.704;44.768;2023-05-20T08:20:18;22.92;;;14.20;;
77888;SDS011;67082;41.704;44.768;2023-05-20T08:22:49;28.00;;;14.00;;
77888;SDS011;67082;41.704;44.768;2023-05-20T08:25:17;27.55;;;14.40;;
77888;SDS011;67082;41.704;44.768;2023-05-20T08:27:45;28.38;;;15.05;;
77888;SDS011;67082;41.704;44.768;2023-05-20T08:30:13;30.45;;;14.85;;
77888;SDS011;67082;41.704;44.768;2023-05-20T08:32:41;30.95;;;14.32;;
77888;SDS011;67082;41.704;44.768;2023-05-20T08:35:10;23.67;;;13.32;;
77888;SDS011;67082;41.704;44.768;2023-05-20T08:37:38;22.55;;;13.23;;
77888;SDS011;67082;41.704;44.768;2023-05-20T08:40:08;33.63;;;14.60;;
77888;SDS011;67082;41.704;44.768;2023-05-20T08:42:39;20.92;;;13.45;;
77888;SDS011;67082;41.704;44.768;2023-05-20T08:45:09;22.40;;;13.07;;
77888;SDS011;67082;41.704;44.768;2023-05-20T08:47:40;20.38;;;12.80;;
77888;SDS011;67082;41.704;44.768;2023-05-20T08:50:13;23.95;;;13.35;;
77888;SDS011;67082;41.704;44.768;2023-05-20T08:52:42;20.73;;;12.85;;
77888;SDS011;67082;41.704;44.768;2023-05-20T08:55:25;19.63;;;12.68;;
77888;SDS011;67082;41.704;44.768;2023-05-20T08:58:01;21.60;;;12.40;;
77888;SDS011;67082;41.704;44.768;2023-05-20T09:00:30;21.25;;;12.68;;
77888;SDS011;67082;41.704;44.768;2023-05-20T09:02:58;25.60;;;12.43;;
77888;SDS011;67082;41.704;44.768;2023-05-20T09:05:27;17.42;;;12.43;;
77888;SDS011;67082;41.704;44.768;2023-05-20T09:08:08;19.92;;;11.98;;
77888;SDS011;67082;41.704;44.768;2023-05-20T09:10:39;26.20;;;11.45;;
77888;SDS011;67082;41.704;44.768;2023-05-20T09:13:08;23.13;;;11.02;;
77888;SDS011;67082;41.704;44.768;2023-05-20T09:15:38;22.85;;;12.05;;
77888;SDS011;67082;41.704;44.768;2023-05-20T09:18:06;18.25;;;11.40;;
77888;SDS011;67082;41.704;44.768;2023-05-20T09:20:36;19.45;;;11.50;;
77888;SDS011;67082;41.704;44.768;2023-05-20T09:23:06;26.65;;;12.43;;
77888;SDS011;67082;41.704;44.768;2023-05-20T09:25:36;22.55;;;11.60;;
77888;SDS011;67082;41.704;44.768;2023-05-20T09:28:05;25.73;;;12.98;;
77888;SDS011;67082;41.704;44.768;2023-05-20T09:30:35;20.52;;;12.73;;
77888;SDS011;67082;41.704;44.768;2023-05-20T09:33:03;19.40;;;12.05;;
77888;SDS011;67082;41.704;44.768;2023-05-20T09:35:33;22.17;;;12.07;;
77888;SDS011;67082;41.704;44.768;2023-05-20T09:38:06;18.17;;;11.75;;
77888;SDS011;67082;41.704;44.768;2023-05-20T09:40:38;20.40;;;11.40;;
77888;SDS011;67082;41.704;44.768;2023-05-20T09:43:09;21.38;;;11.65;;
77888;SDS011;67082;41.704;44.768;2023-05-20T09:45:38;24.40;;;12.48;;
77888;SDS011;67082;41.704;44.768;2023-05-20T09:48:08;21.45;;;12.90;;
77888;SDS011;67082;41.704;44.768;2023-05-20T09:50:38;24.55;;;12.73;;
77888;SDS011;67082;41.704;44.768;2023-05-20T09:53:08;24.65;;;13.50;;
77888;SDS011;67082;41.704;44.768;2023-05-20T09:55:37;18.65;;;12.60;;
77888;SDS011;67082;41.704;44.768;2023-05-20T09:58:06;24.75;;;13.27;;
77888;SDS011;67082;41.704;44.768;2023-05-20T10:00:36;20.10;;;12.77;;
77888;SDS011;67082;41.704;44.768;2023-05-20T10:03:05;23.48;;;13.90;;
77888;SDS011;67082;41.704;44.768;2023-05-20T10:05:37;23.10;;;13.60;;
77888;SDS011;67082;41.704;44.768;2023-05-20T10:11:09;23.33;;;13.50;;
77888;SDS011;67082;41.704;44.768;2023-05-20T10:14:36;21.52;;;13.07;;
77888;SDS011;67082;41.704;44.768;2023-05-20T10:19:59;25.95;;;13.70;;
77888;SDS011;67082;41.704;44.768;2023-05-20T10:22:30;21.85;;;13.90;;
77888;SDS011;67082;41.704;44.768;2023-05-20T10:24:58;21.15;;;13.75;;
77888;SDS011;67082;41.704;44.768;2023-05-20T10:27:43;21.57;;;13.67;;
77888;SDS011;67082;41.704;44.768;2023-05-20T10:30:14;23.50;;;12.82;;
77888;SDS011;67082;41.704;44.768;2023-05-20T10:32:53;25.38;;;13.32;;
77888;SDS011;67082;41.704;44.768;2023-05-20T10:35:24;23.02;;;13.38;;
77888;SDS011;67082;41.704;44.768;2023-05-20T10:37:54;22.85;;;13.88;;
77888;SDS011;67082;41.704;44.768;2023-05-20T10:40:38;22.02;;;13.25;;
77888;SDS011;67082;41.704;44.768;2023-05-20T10:43:11;24.63;;;13.20;;
77888;SDS011;67082;41.704;44.768;2023-05-20T10:45:47;22.63;;;11.63;;
77888;SDS011;67082;41.704;44.768;2023-05-20T10:50:53;19.95;;;12.38;;
77888;SDS011;67082;41.704;44.768;2023-05-20T10:53:25;27.50;;;12.98;;
77888;SDS011;67082;41.704;44.768;2023-05-20T10:56:00;20.15;;;13.10;;
77888;SDS011;67082;41.704;44.768;2023-05-20T10:58:37;26.77;;;13.70;;
77888;SDS011;67082;41.704;44.768;2023-05-20T11:01:06;23.90;;;13.43;;
77888;SDS011;67082;41.704;44.768;2023-05-20T11:03:34;22.48;;;13.52;;
77888;SDS011;67082;41.704;44.768;2023-05-20T11:06:10;21.42;;;13.80;;
77888;SDS011;67082;41.704;44.768;2023-05-20T11:08:45;27.10;;;12.98;;
77888;SDS011;67082;41.704;44.768;2023-05-20T11:11:13;24.10;;;12.73;;
77888;SDS011;67082;41.704;44.768;2023-05-20T11:13:42;21.15;;;13.07;;
77888;SDS011;67082;41.704;44.768;2023-05-20T11:16:10;21.65;;;13.32;;
77888;SDS011;67082;41.704;44.768;2023-05-20T11:18:39;30.33;;;14.05;;
77888;SDS011;67082;41.704;44.768;2023-05-20T11:21:07;22.88;;;14.77;;
77888;SDS011;67082;41.704;44.768;2023-05-20T11:23:35;26.35;;;15.73;;
77888;SDS011;67082;41.704;44.768;2023-05-20T11:26:06;29.52;;;15.05;;
77888;SDS011;67082;41.704;44.768;2023-05-20T11:28:36;30.00;;;17.35;;
77888;SDS011;67082;41.704;44.768;2023-05-20T11:31:04;33.03;;;17.25;;
77888;SDS011;67082;41.704;44.768;2023-05-20T11:33:33;31.02;;;16.80;;
77888;SDS011;67082;41.704;44.768;2023-05-20T11:36:01;28.20;;;16.85;;
77888;SDS011;67082;41.704;44.768;2023-05-20T11:38:37;31.23;;;16.48;;
77888;SDS011;67082;41.704;44.768;2023-05-20T11:41:08;28.88;;;17.00;;
77888;SDS011;67082;41.704;44.768;2023-05-20T11:43:36;27.77;;;16.00;;
77888;SDS011;67082;41.704;44.768;2023-05-20T11:46:04;28.88;;;14.82;;
77888;SDS011;67082;41.704;44.768;2023-05-20T11:48:32;27.42;;;16.52;;
77888;SDS011;67082;41.704;44.768;2023-05-20T11:51:01;27.30;;;15.85;;
77888;SDS011;67082;41.704;44.768;2023-05-20T11:53:29;27.25;;;15.10;;
77888;SDS011;67082;41.704;44.768;2023-05-20T11:55:58;23.77;;;15.10;;
77888;SDS011;67082;41.704;44.768;2023-05-20T11:58:29;29.85;;;15.57;;
77888;SDS011;67082;41.704;44.768;2023-05-20T12:00:57;25.15;;;15.35;;
77888;SDS011;67082;41.704;44.768;2023-05-20T12:03:46;24.75;;;15.68;;
77888;SDS011;67082;41.704;44.768;2023-05-20T12:06:15;25.98;;;15.98;;
77888;SDS011;67082;41.704;44.768;2023-05-20T12:08:44;29.23;;;15.80;;
77888;SDS011;67082;41.704;44.768;2023-05-20T12:11:14;29.77;;;16.40;;
77888;SDS011;67082;41.704;44.768;2023-05-20T12:13:42;25.35;;;16.80;;
77888;SDS011;67082;41.704;44.768;2023-05-20T12:16:10;28.08;;;17.15;;
77888;SDS011;67082;41.704;44.768;2023-05-20T12:18:39;28.35;;;17.65;;
77888;SDS011;67082;41.704;44.768;2023-05-20T12:21:07;24.80;;;15.50;;
77888;SDS011;67082;41.704;44.768;2023-05-20T12:23:36;27.42;;;15.50;;
77888;SDS011;67082;41.704;44.768;2023-05-20T12:26:04;25.83;;;15.80;;
77888;SDS011;67082;41.704;44.768;2023-05-20T12:28:32;26.95;;;16.38;;
77888;SDS011;67082;41.704;44.768;2023-05-20T12:31:00;30.52;;;17.60;;
77888;SDS011;67082;41.704;44.768;2023-05-20T12:33:29;27.90;;;18.20;;
77888;SDS011;67082;41.704;44.768;2023-05-20T12:35:57;28.95;;;19.45;;
77888;SDS011;67082;41.704;44.768;2023-05-20T12:38:25;33.35;;;20.17;;
77888;SDS011;67082;41.704;44.768;2023-05-20T12:40:54;32.25;;;20.30;;
77888;SDS011;67082;41.704;44.768;2023-05-20T12:43:22;31.40;;;18.48;;
77888;SDS011;67082;41.704;44.768;2023-05-20T12:45:50;26.23;;;18.23;;
77888;SDS011;67082;41.704;44.768;2023-05-20T12:48:19;37.75;;;20.10;;
77888;SDS011;67082;41.704;44.768;2023-05-20T12:50:47;31.92;;;20.63;;
77888;SDS011;67082;41.704;44.768;2023-05-20T12:53:15;33.58;;;21.38;;
77888;SDS011;67082;41.704;44.768;2023-05-20T12:55:43;35.47;;;23.55;;
77888;SDS011;67082;41.704;44.768;2023-05-20T12:58:11;40.15;;;24.52;;
77888;SDS011;67082;41.704;44.768;2023-05-20T13:00:39;38.25;;;23.40;;
77888;SDS011;67082;41.704;44.768;2023-05-20T13:03:08;34.30;;;23.98;;
77888;SDS011;67082;41.704;44.768;2023-05-20T13:05:36;39.10;;;26.52;;
77888;SDS011;67082;41.704;44.768;2023-05-20T13:08:05;41.05;;;25.60;;
77888;SDS011;67082;41.704;44.768;2023-05-20T13:10:33;34.13;;;23.02;;
77888;SDS011;67082;41.704;44.768;2023-05-20T13:13:02;35.15;;;23.17;;
77888;SDS011;67082;41.704;44.768;2023-05-20T13:15:31;33.90;;;22.77;;
77888;SDS011;67082;41.704;44.768;2023-05-20T13:18:03;34.40;;;22.10;;
77888;SDS011;67082;41.704;44.768;2023-05-20T13:20:34;38.92;;;22.30;;
77888;SDS011;67082;41.704;44.768;2023-05-20T13:23:04;42.42;;;24.73;;
77888;SDS011;67082;41.704;44.768;2023-05-20T13:25:32;38.08;;;23.25;;
77888;SDS011;67082;41.704;44.768;2023-05-20T13:28:00;37.90;;;25.20;;
77888;SDS011;67082;41.704;44.768;2023-05-20T13:30:29;38.70;;;23.95;;
77888;SDS011;67082;41.704;44.768;2023-05-20T13:32:57;38.20;;;23.63;;
77888;SDS011;67082;41.704;44.768;2023-05-20T13:35:25;38.45;;;23.50;;
77888;SDS011;67082;41.704;44.768;2023-05-20T13:37:54;40.45;;;24.08;;
77888;SDS011;67082;41.704;44.768;2023-05-20T13:40:21;36.10;;;22.65;;
77888;SDS011;67082;41.704;44.768;2023-05-20T13:42:50;34.88;;;23.27;;
77888;SDS011;67082;41.704;44.768;2023-05-20T13:45:18;34.03;;;23.02;;
77888;SDS011;67082;41.704;44.768;2023-05-20T13:47:46;38.13;;;24.90;;
77888;SDS011;67082;41.704;44.768;2023-05-20T13:50:14;33.20;;;22.45;;
77888;SDS011;67082;41.704;44.768;2023-05-20T13:52:43;38.10;;;25.45;;
77888;SDS011;67082;41.704;44.768;2023-05-20T13:55:14;39.50;;;23.70;;
77888;SDS011;67082;41.704;44.768;2023-05-20T13:57:43;37.03;;;23.98;;
77888;SDS011;67082;41.704;44.768;2023-05-20T14:00:11;36.97;;;22.67;;
77888;SDS011;67082;41.704;44.768;2023-05-20T14:02:40;37.42;;;22.42;;
77888;SDS011;67082;41.704;44.768;2023-05-20T14:05:08;35.75;;;21.75;;
77888;SDS011;67082;41.704;44.768;2023-05-20T14:07:37;34.72;;;22.98;;
77888;SDS011;67082;41.704;44.768;2023-05-20T14:10:05;34.63;;;22.70;;
77888;SDS011;67082;41.704;44.768;2023-05-20T14:12:36;34.33;;;22.38;;
77888;SDS011;67082;41.704;44.768;2023-05-20T14:15:04;37.88;;;24.85;;
77888;SDS011;67082;41.704;44.768;2023-05-20T14:17:33;42.95;;;29.25;;
77888;SDS011;67082;41.704;44.768;2023-05-20T14:20:01;37.80;;;25.38;;
77888;SDS011;67082;41.704;44.768;2023-05-20T14:22:30;36.92;;;23.90;;
77888;SDS011;67082;41.704;44.768;2023-05-20T14:24:58;34.08;;;22.50;;
77888;SDS011;67082;41.704;44.768;2023-05-20T14:27:26;34.00;;;22.48;;
77888;SDS011;67082;41.704;44.768;2023-05-20T14:29:55;35.15;;;23.08;;
77888;SDS011;67082;41.704;44.768;2023-05-20T14:32:23;35.30;;;21.90;;